sensor_id;sensor_type;location;lat;lon;timestamp;temperature;humidity
8643;DHT22;4359;49.358;11.256;2022-09-13T00:00:26;10.80;99.90
8643;DHT22;4359;49.358;11.256;2022-09-13T00:02:52;10.70;99.90
8643;DHT22;4359;49.358;11.256;2022-09-13T00:05:18;10.70;99.90
8643;DHT22;4359;49.358;11.256;2022-09-13T00:07:43;10.60;99.90
8643;DHT22;4359;49.358;11.256;2022-09-13T00:10:09;10.60;99.90
8643;DHT22;4359;49.358;11.256;2022-09-13T00:12:34;10.50;99.90
8643;DHT22;4359;49.358;11.256;2022-09-13T00:15:00;10.50;99.90
8643;DHT22;4359;49.358;11.256;2022-09-13T00:17:26;10.50;99.90
8643;DHT22;4359;49.358;11.256;2022-09-13T00:19:52;10.50;99.90
8643;DHT22;4359;49.358;11.256;2022-09-13T00:22:17;10.50;99.90
8643;DHT22;4359;49.358;11.256;2022-09-13T00:24:43;10.40;99.90
8643;DHT22;4359;49.358;11.256;2022-09-13T00:27:08;10.40;99.90
8643;DHT22;4359;49.358;11.256;2022-09-13T00:29:35;10.40;99.90
8643;DHT22;4359;49.358;11.256;2022-09-13T00:32:01;10.30;99.90
8643;DHT22;4359;49.358;11.256;2022-09-13T00:34:26;10.30;99.90
8643;DHT22;4359;49.358;11.256;2022-09-13T00:36:52;10.30;99.90
8643;DHT22;4359;49.358;11.256;2022-09-13T00:39:18;10.30;99.90
8643;DHT22;4359;49.358;11.256;2022-09-13T00:41:44;10.40;99.90
8643;DHT22;4359;49.358;11.256;2022-09-13T00:47:16;10.40;99.90
8643;DHT22;4359;49.358;11.256;2022-09-13T00:49:45;10.30;99.90
8643;DHT22;4359;49.358;11.256;2022-09-13T00:52:15;10.30;99.90
8643;DHT22;4359;49.358;11.256;2022-09-13T00:54:56;10.30;99.90
8643;DHT22;4359;49.358;11.256;2022-09-13T00:57:23;10.20;99.90
8643;DHT22;4359;49.358;11.256;2022-09-13T01:02:23;10.20;99.90
8643;DHT22;4359;49.358;11.256;2022-09-13T01:04:50;10.20;99.90
8643;DHT22;4359;49.358;11.256;2022-09-13T01:07:16;10.30;99.90
8643;DHT22;4359;49.358;11.256;2022-09-13T01:09:45;10.30;99.90
8643;DHT22;4359;49.358;11.256;2022-09-13T01:12:21;10.30;99.90
8643;DHT22;4359;49.358;11.256;2022-09-13T01:14:51;10.30;99.90
8643;DHT22;4359;49.358;11.256;2022-09-13T01:17:17;10.30;99.90
8643;DHT22;4359;49.358;11.256;2022-09-13T01:19:43;10.20;99.90
8643;DHT22;4359;49.358;11.256;2022-09-13T01:30:36;10.10;99.90
8643;DHT22;4359;49.358;11.256;2022-09-13T01:33:13;10.10;99.90
8643;DHT22;4359;49.358;11.256;2022-09-13T01:44:26;9.90;99.90
8643;DHT22;4359;49.358;11.256;2022-09-13T01:50:20;9.90;99.90
8643;DHT22;4359;49.358;11.256;2022-09-13T01:57:56;9.90;99.90
8643;DHT22;4359;49.358;11.256;2022-09-13T02:00:26;9.80;99.90
8643;DHT22;4359;49.358;11.256;2022-09-13T02:03:02;9.90;99.90
8643;DHT22;4359;49.358;11.256;2022-09-13T02:05:39;9.90;99.90
8643;DHT22;4359;49.358;11.256;2022-09-13T02:08:12;9.90;99.90
8643;DHT22;4359;49.358;11.256;2022-09-13T02:10:52;9.90;99.90
8643;DHT22;4359;49.358;11.256;2022-09-13T02:13:24;9.90;99.90
8643;DHT22;4359;49.358;11.256;2022-09-13T02:15:55;9.90;99.90
8643;DHT22;4359;49.358;11.256;2022-09-13T02:18:30;9.90;99.90
8643;DHT22;4359;49.358;11.256;2022-09-13T02:21:00;9.80;99.90
8643;DHT22;4359;49.358;11.256;2022-09-13T02:23:38;9.70;99.90
8643;DHT22;4359;49.358;11.256;2022-09-13T02:26:06;9.70;99.90
8643;DHT22;4359;49.358;11.256;2022-09-13T02:28:40;9.60;99.90
8643;DHT22;4359;49.358;11.256;2022-09-13T02:31:08;9.70;99.90
8643;DHT22;4359;49.358;11.256;2022-09-13T02:33:42;9.80;99.90
8643;DHT22;4359;49.358;11.256;2022-09-13T02:36:12;9.80;99.90
8643;DHT22;4359;49.358;11.256;2022-09-13T02:38:58;9.80;99.90
8643;DHT22;4359;49.358;11.256;2022-09-13T02:44:51;9.80;99.90
8643;DHT22;4359;49.358;11.256;2022-09-13T02:52:11;9.60;99.90
8643;DHT22;4359;49.358;11.256;2022-09-13T02:54:42;9.50;99.90
8643;DHT22;4359;49.358;11.256;2022-09-13T02:57:32;9.50;99.90
8643;DHT22;4359;49.358;11.256;2022-09-13T03:00:01;9.50;99.90
8643;DHT22;4359;49.358;11.256;2022-09-13T03:02:31;9.40;99.90
8643;DHT22;4359;49.358;11.256;2022-09-13T03:04:58;9.40;99.90
8643;DHT22;4359;49.358;11.256;2022-09-13T03:07:25;9.30;99.90
8643;DHT22;4359;49.358;11.256;2022-09-13T03:09:57;9.30;99.90
8643;DHT22;4359;49.358;11.256;2022-09-13T03:12:41;9.30;99.90
8643;DHT22;4359;49.358;11.256;2022-09-13T03:26:04;9.30;99.90
8643;DHT22;4359;49.358;11.256;2022-09-13T03:31:26;9.30;99.90
8643;DHT22;4359;49.358;11.256;2022-09-13T03:34:02;9.30;99.90
8643;DHT22;4359;49.358;11.256;2022-09-13T03:36:38;9.40;99.90
8643;DHT22;4359;49.358;11.256;2022-09-13T03:39:36;9.50;99.90
8643;DHT22;4359;49.358;11.256;2022-09-13T03:42:17;9.50;99.90
8643;DHT22;4359;49.358;11.256;2022-09-13T03:44:46;9.40;99.90
8643;DHT22;4359;49.358;11.256;2022-09-13T03:47:14;9.30;99.90
8643;DHT22;4359;49.358;11.256;2022-09-13T03:49:42;9.30;99.90
8643;DHT22;4359;49.358;11.256;2022-09-13T03:52:09;9.40;99.90
8643;DHT22;4359;49.358;11.256;2022-09-13T03:54:37;9.40;99.90
8643;DHT22;4359;49.358;11.256;2022-09-13T03:57:13;9.50;99.90
8643;DHT22;4359;49.358;11.256;2022-09-13T03:59:51;9.50;99.90
8643;DHT22;4359;49.358;11.256;2022-09-13T04:02:18;9.50;99.90
8643;DHT22;4359;49.358;11.256;2022-09-13T04:04:45;9.40;99.90
8643;DHT22;4359;49.358;11.256;2022-09-13T04:07:14;9.40;99.90
8643;DHT22;4359;49.358;11.256;2022-09-13T04:09:41;9.30;99.90
8643;DHT22;4359;49.358;11.256;2022-09-13T04:12:07;9.30;99.90
8643;DHT22;4359;49.358;11.256;2022-09-13T04:14:34;9.10;99.90
8643;DHT22;4359;49.358;11.256;2022-09-13T04:17:00;9.00;99.90
8643;DHT22;4359;49.358;11.256;2022-09-13T04:19:26;9.00;99.90
8643;DHT22;4359;49.358;11.256;2022-09-13T04:21:53;9.00;99.90
8643;DHT22;4359;49.358;11.256;2022-09-13T04:24:19;9.00;99.90
8643;DHT22;4359;49.358;11.256;2022-09-13T04:26:49;9.20;99.90
8643;DHT22;4359;49.358;11.256;2022-09-13T04:29:19;9.20;99.90
8643;DHT22;4359;49.358;11.256;2022-09-13T04:31:46;9.30;99.90
8643;DHT22;4359;49.358;11.256;2022-09-13T04:34:12;9.30;99.90
8643;DHT22;4359;49.358;11.256;2022-09-13T04:36:39;9.30;99.90
8643;DHT22;4359;49.358;11.256;2022-09-13T04:39:05;9.30;99.90
8643;DHT22;4359;49.358;11.256;2022-09-13T04:41:31;9.30;99.90
8643;DHT22;4359;49.358;11.256;2022-09-13T04:43:58;9.20;99.90
8643;DHT22;4359;49.358;11.256;2022-09-13T04:46:23;9.20;99.90
8643;DHT22;4359;49.358;11.256;2022-09-13T04:48:50;9.20;99.90
8643;DHT22;4359;49.358;11.256;2022-09-13T04:51:16;9.00;99.90
8643;DHT22;4359;49.358;11.256;2022-09-13T04:53:43;9.00;99.90
8643;DHT22;4359;49.358;11.256;2022-09-13T04:56:09;8.90;99.90
8643;DHT22;4359;49.358;11.256;2022-09-13T04:58:35;8.90;99.90
8643;DHT22;4359;49.358;11.256;2022-09-13T05:01:05;9.00;99.90
8643;DHT22;4359;49.358;11.256;2022-09-13T05:03:32;9.10;99.90
8643;DHT22;4359;49.358;11.256;2022-09-13T05:06:06;9.10;99.90
8643;DHT22;4359;49.358;11.256;2022-09-13T05:08:33;9.20;99.90
8643;DHT22;4359;49.358;11.256;2022-09-13T05:10:59;9.10;99.90
8643;DHT22;4359;49.358;11.256;2022-09-13T05:13:25;9.10;99.90
8643;DHT22;4359;49.358;11.256;2022-09-13T05:15:57;9.10;99.90
8643;DHT22;4359;49.358;11.256;2022-09-13T05:18:27;9.10;99.90
8643;DHT22;4359;49.358;11.256;2022-09-13T05:20:54;9.10;99.90
8643;DHT22;4359;49.358;11.256;2022-09-13T05:23:21;9.10;99.90
8643;DHT22;4359;49.358;11.256;2022-09-13T05:25:56;9.10;99.90
8643;DHT22;4359;49.358;11.256;2022-09-13T05:28:22;9.20;99.90
8643;DHT22;4359;49.358;11.256;2022-09-13T05:31:03;9.40;99.90
8643;DHT22;4359;49.358;11.256;2022-09-13T05:33:31;9.60;99.90
8643;DHT22;4359;49.358;11.256;2022-09-13T05:35:57;9.70;99.90
8643;DHT22;4359;49.358;11.256;2022-09-13T05:38:23;9.80;99.90
8643;DHT22;4359;49.358;11.256;2022-09-13T05:40:56;9.90;99.90
8643;DHT22;4359;49.358;11.256;2022-09-13T05:43:26;10.00;99.90
8643;DHT22;4359;49.358;11.256;2022-09-13T05:46:07;10.10;99.90
8643;DHT22;4359;49.358;11.256;2022-09-13T05:48:34;10.30;99.90
8643;DHT22;4359;49.358;11.256;2022-09-13T05:51:15;10.40;99.90
8643;DHT22;4359;49.358;11.256;2022-09-13T05:53:43;10.60;99.90
8643;DHT22;4359;49.358;11.256;2022-09-13T05:56:13;10.80;99.90
8643;DHT22;4359;49.358;11.256;2022-09-13T05:58:40;10.90;99.90
8643;DHT22;4359;49.358;11.256;2022-09-13T06:01:07;10.90;99.90
8643;DHT22;4359;49.358;11.256;2022-09-13T06:03:33;11.10;99.90
8643;DHT22;4359;49.358;11.256;2022-09-13T06:05:59;11.50;99.90
8643;DHT22;4359;49.358;11.256;2022-09-13T06:08:26;11.80;99.90
8643;DHT22;4359;49.358;11.256;2022-09-13T06:11:04;12.10;99.90
8643;DHT22;4359;49.358;11.256;2022-09-13T06:13:31;12.30;99.90
8643;DHT22;4359;49.358;11.256;2022-09-13T06:15:58;12.40;99.90
8643;DHT22;4359;49.358;11.256;2022-09-13T06:18:25;12.60;99.90
8643;DHT22;4359;49.358;11.256;2022-09-13T06:20:57;12.70;99.90
8643;DHT22;4359;49.358;11.256;2022-09-13T06:23:26;12.90;99.90
8643;DHT22;4359;49.358;11.256;2022-09-13T06:26:08;12.90;99.90
8643;DHT22;4359;49.358;11.256;2022-09-13T06:28:35;13.00;99.90
8643;DHT22;4359;49.358;11.256;2022-09-13T06:31:03;12.90;99.90
8643;DHT22;4359;49.358;11.256;2022-09-13T06:33:30;12.90;99.90
8643;DHT22;4359;49.358;11.256;2022-09-13T06:36:00;13.00;99.90
8643;DHT22;4359;49.358;11.256;2022-09-13T06:38:26;12.90;99.90
8643;DHT22;4359;49.358;11.256;2022-09-13T06:43:32;12.80;99.90
8643;DHT22;4359;49.358;11.256;2022-09-13T06:46:13;12.90;99.90
8643;DHT22;4359;49.358;11.256;2022-09-13T06:48:40;13.10;99.90
8643;DHT22;4359;49.358;11.256;2022-09-13T06:51:09;13.20;99.90
8643;DHT22;4359;49.358;11.256;2022-09-13T06:53:35;13.50;99.90
8643;DHT22;4359;49.358;11.256;2022-09-13T06:56:07;13.80;99.90
8643;DHT22;4359;49.358;11.256;2022-09-13T06:58:35;14.10;99.90
8643;DHT22;4359;49.358;11.256;2022-09-13T07:03:35;14.40;99.90
8643;DHT22;4359;49.358;11.256;2022-09-13T07:06:06;14.60;99.90
8643;DHT22;4359;49.358;11.256;2022-09-13T07:08:32;15.00;99.90
8643;DHT22;4359;49.358;11.256;2022-09-13T07:10:59;15.10;99.90
8643;DHT22;4359;49.358;11.256;2022-09-13T07:13:24;15.10;99.90
8643;DHT22;4359;49.358;11.256;2022-09-13T07:15:50;15.30;99.90
8643;DHT22;4359;49.358;11.256;2022-09-13T07:18:15;15.60;99.90
8643;DHT22;4359;49.358;11.256;2022-09-13T07:20:41;15.80;99.90
8643;DHT22;4359;49.358;11.256;2022-09-13T07:23:07;15.80;99.90
8643;DHT22;4359;49.358;11.256;2022-09-13T07:25:32;16.00;99.90
8643;DHT22;4359;49.358;11.256;2022-09-13T07:27:58;16.20;99.90
8643;DHT22;4359;49.358;11.256;2022-09-13T07:30:23;16.30;99.90
8643;DHT22;4359;49.358;11.256;2022-09-13T07:32:51;16.50;99.90
8643;DHT22;4359;49.358;11.256;2022-09-13T07:35:16;16.80;99.90
8643;DHT22;4359;49.358;11.256;2022-09-13T07:37:42;17.10;99.90
8643;DHT22;4359;49.358;11.256;2022-09-13T07:40:10;17.30;99.90
8643;DHT22;4359;49.358;11.256;2022-09-13T07:42:35;17.70;99.90
8643;DHT22;4359;49.358;11.256;2022-09-13T07:45:01;17.90;99.90
8643;DHT22;4359;49.358;11.256;2022-09-13T07:47:27;18.00;99.90
8643;DHT22;4359;49.358;11.256;2022-09-13T07:49:52;18.20;99.90
8643;DHT22;4359;49.358;11.256;2022-09-13T07:52:18;18.50;99.90
8643;DHT22;4359;49.358;11.256;2022-09-13T07:54:43;18.80;99.90
8643;DHT22;4359;49.358;11.256;2022-09-13T07:57:09;19.00;99.90
8643;DHT22;4359;49.358;11.256;2022-09-13T07:59:35;19.20;99.90
8643;DHT22;4359;49.358;11.256;2022-09-13T08:02:00;19.10;99.90
8643;DHT22;4359;49.358;11.256;2022-09-13T08:04:26;19.00;99.90
8643;DHT22;4359;49.358;11.256;2022-09-13T08:06:51;19.20;99.90
8643;DHT22;4359;49.358;11.256;2022-09-13T08:09:17;19.40;99.90
8643;DHT22;4359;49.358;11.256;2022-09-13T08:11:48;19.60;99.90
8643;DHT22;4359;49.358;11.256;2022-09-13T08:14:16;19.60;99.90
8643;DHT22;4359;49.358;11.256;2022-09-13T08:16:42;19.70;99.90
8643;DHT22;4359;49.358;11.256;2022-09-13T08:19:12;19.60;99.90
8643;DHT22;4359;49.358;11.256;2022-09-13T08:21:39;19.70;99.90
8643;DHT22;4359;49.358;11.256;2022-09-13T08:24:06;19.60;99.90
8643;DHT22;4359;49.358;11.256;2022-09-13T08:26:34;19.60;99.90
8643;DHT22;4359;49.358;11.256;2022-09-13T08:29:02;19.70;99.90
8643;DHT22;4359;49.358;11.256;2022-09-13T08:31:29;19.80;99.90
8643;DHT22;4359;49.358;11.256;2022-09-13T08:33:56;19.90;99.90
8643;DHT22;4359;49.358;11.256;2022-09-13T08:36:23;19.80;99.90
8643;DHT22;4359;49.358;11.256;2022-09-13T08:38:54;20.00;99.90
8643;DHT22;4359;49.358;11.256;2022-09-13T08:44:04;20.10;99.90
8643;DHT22;4359;49.358;11.256;2022-09-13T08:46:46;19.70;99.90
8643;DHT22;4359;49.358;11.256;2022-09-13T08:51:48;20.00;99.90
8643;DHT22;4359;49.358;11.256;2022-09-13T08:54:16;20.40;99.90
8643;DHT22;4359;49.358;11.256;2022-09-13T08:59:46;21.20;99.90
8643;DHT22;4359;49.358;11.256;2022-09-13T09:07:43;22.40;99.90
8643;DHT22;4359;49.358;11.256;2022-09-13T09:12:58;22.90;99.90
8643;DHT22;4359;49.358;11.256;2022-09-13T09:15:29;23.20;99.90
8643;DHT22;4359;49.358;11.256;2022-09-13T09:18:08;23.10;99.90
8643;DHT22;4359;49.358;11.256;2022-09-13T09:20:52;22.70;99.90
8643;DHT22;4359;49.358;11.256;2022-09-13T09:23:20;22.10;99.90
8643;DHT22;4359;49.358;11.256;2022-09-13T09:25:47;21.40;99.90
8643;DHT22;4359;49.358;11.256;2022-09-13T09:28:14;21.20;99.90
8643;DHT22;4359;49.358;11.256;2022-09-13T09:31:02;21.00;99.90
8643;DHT22;4359;49.358;11.256;2022-09-13T09:33:51;20.80;99.90
8643;DHT22;4359;49.358;11.256;2022-09-13T09:36:35;20.50;99.90
8643;DHT22;4359;49.358;11.256;2022-09-13T09:39:04;20.20;99.90
8643;DHT22;4359;49.358;11.256;2022-09-13T09:41:33;20.10;99.90
8643;DHT22;4359;49.358;11.256;2022-09-13T09:44:21;20.00;99.90
8643;DHT22;4359;49.358;11.256;2022-09-13T09:46:51;20.00;99.90
8643;DHT22;4359;49.358;11.256;2022-09-13T09:49:36;20.30;99.90
8643;DHT22;4359;49.358;11.256;2022-09-13T09:52:28;20.50;99.90
8643;DHT22;4359;49.358;11.256;2022-09-13T09:55:10;20.60;99.90
8643;DHT22;4359;49.358;11.256;2022-09-13T09:58:06;20.50;99.90
8643;DHT22;4359;49.358;11.256;2022-09-13T10:00:48;20.50;99.90
8643;DHT22;4359;49.358;11.256;2022-09-13T10:03:19;20.50;99.90
8643;DHT22;4359;49.358;11.256;2022-09-13T10:05:46;20.60;99.90
8643;DHT22;4359;49.358;11.256;2022-09-13T10:08:25;20.80;99.90
8643;DHT22;4359;49.358;11.256;2022-09-13T10:10:54;20.60;99.90
8643;DHT22;4359;49.358;11.256;2022-09-13T10:13:23;20.60;99.90
8643;DHT22;4359;49.358;11.256;2022-09-13T10:16:00;20.80;99.90
8643;DHT22;4359;49.358;11.256;2022-09-13T10:18:33;20.60;99.90
8643;DHT22;4359;49.358;11.256;2022-09-13T10:21:23;20.60;99.90
8643;DHT22;4359;49.358;11.256;2022-09-13T10:23:49;20.80;99.90
8643;DHT22;4359;49.358;11.256;2022-09-13T10:26:20;20.80;99.90
8643;DHT22;4359;49.358;11.256;2022-09-13T10:28:59;21.00;99.90
8643;DHT22;4359;49.358;11.256;2022-09-13T10:31:35;21.30;99.90
8643;DHT22;4359;49.358;11.256;2022-09-13T10:34:05;21.30;99.90
8643;DHT22;4359;49.358;11.256;2022-09-13T10:36:34;21.10;99.90
8643;DHT22;4359;49.358;11.256;2022-09-13T10:39:03;20.90;99.90
8643;DHT22;4359;49.358;11.256;2022-09-13T10:41:31;20.90;99.90
8643;DHT22;4359;49.358;11.256;2022-09-13T10:44:03;21.00;99.90
8643;DHT22;4359;49.358;11.256;2022-09-13T10:46:33;21.40;99.90
8643;DHT22;4359;49.358;11.256;2022-09-13T10:49:00;21.80;99.90
8643;DHT22;4359;49.358;11.256;2022-09-13T10:54:17;22.40;99.90
8643;DHT22;4359;49.358;11.256;2022-09-13T10:56:45;22.60;99.90
8643;DHT22;4359;49.358;11.256;2022-09-13T10:59:28;22.40;99.90
8643;DHT22;4359;49.358;11.256;2022-09-13T11:04:55;21.90;99.90
8643;DHT22;4359;49.358;11.256;2022-09-13T11:10:34;21.90;99.90
8643;DHT22;4359;49.358;11.256;2022-09-13T11:13:22;22.10;99.90
8643;DHT22;4359;49.358;11.256;2022-09-13T11:26:42;24.40;99.90
8643;DHT22;4359;49.358;11.256;2022-09-13T11:35:08;23.60;99.90
8643;DHT22;4359;49.358;11.256;2022-09-13T11:40:30;24.00;99.90
8643;DHT22;4359;49.358;11.256;2022-09-13T11:53:56;23.90;99.90
8643;DHT22;4359;49.358;11.256;2022-09-13T11:56:45;23.60;99.90
8643;DHT22;4359;49.358;11.256;2022-09-13T11:59:36;23.40;99.90
8643;DHT22;4359;49.358;11.256;2022-09-13T12:07:18;23.50;99.90
8643;DHT22;4359;49.358;11.256;2022-09-13T12:10:03;23.10;99.90
8643;DHT22;4359;49.358;11.256;2022-09-13T12:12:33;22.80;99.90
8643;DHT22;4359;49.358;11.256;2022-09-13T12:15:13;22.50;99.90
8643;DHT22;4359;49.358;11.256;2022-09-13T12:17:43;22.40;99.90
8643;DHT22;4359;49.358;11.256;2022-09-13T12:20:30;22.40;99.90
8643;DHT22;4359;49.358;11.256;2022-09-13T12:23:03;22.10;99.90
8643;DHT22;4359;49.358;11.256;2022-09-13T12:28:22;21.90;99.90
8643;DHT22;4359;49.358;11.256;2022-09-13T12:31:00;21.60;99.90
8643;DHT22;4359;49.358;11.256;2022-09-13T12:33:27;21.40;99.90
8643;DHT22;4359;49.358;11.256;2022-09-13T12:56:40;20.90;99.90
8643;DHT22;4359;49.358;11.256;2022-09-13T12:59:27;21.00;99.90
8643;DHT22;4359;49.358;11.256;2022-09-13T13:02:02;21.10;99.90
8643;DHT22;4359;49.358;11.256;2022-09-13T13:04:33;21.20;99.90
8643;DHT22;4359;49.358;11.256;2022-09-13T13:07:06;21.20;99.90
8643;DHT22;4359;49.358;11.256;2022-09-13T13:09:42;21.20;99.90
8643;DHT22;4359;49.358;11.256;2022-09-13T13:12:10;21.20;99.90
8643;DHT22;4359;49.358;11.256;2022-09-13T13:20:46;20.60;99.90
8643;DHT22;4359;49.358;11.256;2022-09-13T13:23:28;20.60;99.90
8643;DHT22;4359;49.358;11.256;2022-09-13T13:26:06;20.40;99.90
8643;DHT22;4359;49.358;11.256;2022-09-13T13:31:23;20.30;99.90
8643;DHT22;4359;49.358;11.256;2022-09-13T13:33:56;20.30;99.90
8643;DHT22;4359;49.358;11.256;2022-09-13T13:38:56;20.40;99.90
8643;DHT22;4359;49.358;11.256;2022-09-13T13:41:36;20.50;99.90
8643;DHT22;4359;49.358;11.256;2022-09-13T13:46:43;20.60;99.90
8643;DHT22;4359;49.358;11.256;2022-09-13T13:54:56;21.00;99.90
8643;DHT22;4359;49.358;11.256;2022-09-13T13:59:46;21.00;99.90
8643;DHT22;4359;49.358;11.256;2022-09-13T14:02:18;21.00;99.90
8643;DHT22;4359;49.358;11.256;2022-09-13T14:04:49;21.10;99.90
8643;DHT22;4359;49.358;11.256;2022-09-13T14:15:46;21.10;99.90
8643;DHT22;4359;49.358;11.256;2022-09-13T14:21:04;21.30;99.90
8643;DHT22;4359;49.358;11.256;2022-09-13T14:23:41;21.50;99.90
8643;DHT22;4359;49.358;11.256;2022-09-13T14:26:08;21.60;99.90
8643;DHT22;4359;49.358;11.256;2022-09-13T14:28:35;21.70;99.90
8643;DHT22;4359;49.358;11.256;2022-09-13T14:31:00;21.70;99.90
8643;DHT22;4359;49.358;11.256;2022-09-13T14:33:28;21.90;99.90
8643;DHT22;4359;49.358;11.256;2022-09-13T14:36:05;21.90;99.90
8643;DHT22;4359;49.358;11.256;2022-09-13T14:38:35;22.00;99.90
8643;DHT22;4359;49.358;11.256;2022-09-13T14:41:28;22.20;99.90
8643;DHT22;4359;49.358;11.256;2022-09-13T14:44:07;22.30;99.90
8643;DHT22;4359;49.358;11.256;2022-09-13T14:46:40;22.60;99.90
8643;DHT22;4359;49.358;11.256;2022-09-13T14:49:08;22.70;99.90
8643;DHT22;4359;49.358;11.256;2022-09-13T14:51:57;22.80;99.90
8643;DHT22;4359;49.358;11.256;2022-09-13T14:54:33;22.90;99.90
8643;DHT22;4359;49.358;11.256;2022-09-13T14:57:01;22.90;99.90
8643;DHT22;4359;49.358;11.256;2022-09-13T15:01:57;22.70;99.90
8643;DHT22;4359;49.358;11.256;2022-09-13T15:04:23;22.50;99.90
8643;DHT22;4359;49.358;11.256;2022-09-13T15:07:06;22.40;99.90
8643;DHT22;4359;49.358;11.256;2022-09-13T15:09:33;22.50;99.90
8643;DHT22;4359;49.358;11.256;2022-09-13T15:12:00;22.50;99.90
8643;DHT22;4359;49.358;11.256;2022-09-13T15:17:06;22.70;99.90
8643;DHT22;4359;49.358;11.256;2022-09-13T15:19:49;22.60;99.90
8643;DHT22;4359;49.358;11.256;2022-09-13T15:22:23;22.50;99.90
8643;DHT22;4359;49.358;11.256;2022-09-13T15:24:55;22.50;99.90
8643;DHT22;4359;49.358;11.256;2022-09-13T15:27:27;22.30;99.90
8643;DHT22;4359;49.358;11.256;2022-09-13T15:29:58;22.20;99.90
8643;DHT22;4359;49.358;11.256;2022-09-13T15:32:31;22.30;99.90
8643;DHT22;4359;49.358;11.256;2022-09-13T15:34:58;22.20;99.90
8643;DHT22;4359;49.358;11.256;2022-09-13T15:37:35;22.10;99.90
8643;DHT22;4359;49.358;11.256;2022-09-13T15:40:16;21.90;99.90
8643;DHT22;4359;49.358;11.256;2022-09-13T15:42:51;21.70;99.90
8643;DHT22;4359;49.358;11.256;2022-09-13T15:45:18;21.70;99.90
8643;DHT22;4359;49.358;11.256;2022-09-13T15:47:50;21.70;99.90
8643;DHT22;4359;49.358;11.256;2022-09-13T15:50:25;21.60;99.90
8643;DHT22;4359;49.358;11.256;2022-09-13T15:52:53;21.50;99.90
8643;DHT22;4359;49.358;11.256;2022-09-13T15:55:19;21.60;99.90
8643;DHT22;4359;49.358;11.256;2022-09-13T15:57:45;21.60;99.90
8643;DHT22;4359;49.358;11.256;2022-09-13T16:00:15;21.50;99.90
8643;DHT22;4359;49.358;11.256;2022-09-13T16:02:41;21.50;99.90
8643;DHT22;4359;49.358;11.256;2022-09-13T16:05:06;21.50;99.90
8643;DHT22;4359;49.358;11.256;2022-09-13T16:07:33;21.50;99.90
8643;DHT22;4359;49.358;11.256;2022-09-13T16:09:59;21.50;99.90
8643;DHT22;4359;49.358;11.256;2022-09-13T16:12:25;21.30;99.90
8643;DHT22;4359;49.358;11.256;2022-09-13T16:14:52;21.30;99.90
8643;DHT22;4359;49.358;11.256;2022-09-13T16:17:23;21.30;99.90
8643;DHT22;4359;49.358;11.256;2022-09-13T16:19:50;21.10;99.90
8643;DHT22;4359;49.358;11.256;2022-09-13T16:22:16;21.10;99.90
8643;DHT22;4359;49.358;11.256;2022-09-13T16:24:42;21.10;99.90
8643;DHT22;4359;49.358;11.256;2022-09-13T16:27:12;21.20;99.90
8643;DHT22;4359;49.358;11.256;2022-09-13T16:29:38;21.20;99.90
8643;DHT22;4359;49.358;11.256;2022-09-13T16:32:04;21.10;99.90
8643;DHT22;4359;49.358;11.256;2022-09-13T16:34:30;21.10;99.90
8643;DHT22;4359;49.358;11.256;2022-09-13T16:36:55;21.00;99.90
8643;DHT22;4359;49.358;11.256;2022-09-13T16:39:21;20.90;99.90
8643;DHT22;4359;49.358;11.256;2022-09-13T16:41:47;20.90;99.90
8643;DHT22;4359;49.358;11.256;2022-09-13T16:44:13;20.80;99.90
8643;DHT22;4359;49.358;11.256;2022-09-13T16:46:38;20.70;99.90
8643;DHT22;4359;49.358;11.256;2022-09-13T16:49:04;20.60;99.90
8643;DHT22;4359;49.358;11.256;2022-09-13T16:51:30;20.50;99.90
8643;DHT22;4359;49.358;11.256;2022-09-13T16:53:56;20.40;99.90
8643;DHT22;4359;49.358;11.256;2022-09-13T16:56:24;20.30;99.90
8643;DHT22;4359;49.358;11.256;2022-09-13T16:58:50;20.20;99.90
8643;DHT22;4359;49.358;11.256;2022-09-13T17:01:20;20.10;99.90
8643;DHT22;4359;49.358;11.256;2022-09-13T17:03:46;20.00;99.90
8643;DHT22;4359;49.358;11.256;2022-09-13T17:06:14;19.80;99.90
8643;DHT22;4359;49.358;11.256;2022-09-13T17:08:45;19.60;99.90
8643;DHT22;4359;49.358;11.256;2022-09-13T17:11:13;19.50;99.90
8643;DHT22;4359;49.358;11.256;2022-09-13T17:13:40;19.40;99.90
8643;DHT22;4359;49.358;11.256;2022-09-13T17:16:18;19.20;99.90
8643;DHT22;4359;49.358;11.256;2022-09-13T17:18:43;19.20;99.90
8643;DHT22;4359;49.358;11.256;2022-09-13T17:21:09;19.10;99.90
8643;DHT22;4359;49.358;11.256;2022-09-13T17:23:35;19.10;99.90
8643;DHT22;4359;49.358;11.256;2022-09-13T17:26:01;19.10;99.90
8643;DHT22;4359;49.358;11.256;2022-09-13T17:28:26;19.00;99.90
8643;DHT22;4359;49.358;11.256;2022-09-13T17:30:52;19.00;99.90
8643;DHT22;4359;49.358;11.256;2022-09-13T17:33:18;18.90;99.90
8643;DHT22;4359;49.358;11.256;2022-09-13T17:35:43;18.90;99.90
8643;DHT22;4359;49.358;11.256;2022-09-13T17:38:09;18.90;99.90
8643;DHT22;4359;49.358;11.256;2022-09-13T17:40:36;18.80;99.90
8643;DHT22;4359;49.358;11.256;2022-09-13T17:43:01;18.70;99.90
8643;DHT22;4359;49.358;11.256;2022-09-13T17:45:28;18.60;99.90
8643;DHT22;4359;49.358;11.256;2022-09-13T17:47:54;18.50;99.90
8643;DHT22;4359;49.358;11.256;2022-09-13T17:50:21;18.40;99.90
8643;DHT22;4359;49.358;11.256;2022-09-13T17:52:47;18.40;99.90
8643;DHT22;4359;49.358;11.256;2022-09-13T17:55:13;18.40;99.90
8643;DHT22;4359;49.358;11.256;2022-09-13T17:57:39;18.40;99.90
8643;DHT22;4359;49.358;11.256;2022-09-13T18:00:06;18.40;99.90
8643;DHT22;4359;49.358;11.256;2022-09-13T18:02:37;18.40;99.90
8643;DHT22;4359;49.358;11.256;2022-09-13T18:05:03;18.30;99.90
8643;DHT22;4359;49.358;11.256;2022-09-13T18:07:29;18.20;99.90
8643;DHT22;4359;49.358;11.256;2022-09-13T18:09:55;18.20;99.90
8643;DHT22;4359;49.358;11.256;2022-09-13T18:12:20;18.10;99.90
8643;DHT22;4359;49.358;11.256;2022-09-13T18:14:46;18.10;99.90
8643;DHT22;4359;49.358;11.256;2022-09-13T18:17:12;18.00;99.90
8643;DHT22;4359;49.358;11.256;2022-09-13T18:19:41;18.00;99.90
8643;DHT22;4359;49.358;11.256;2022-09-13T18:22:07;18.00;99.90
8643;DHT22;4359;49.358;11.256;2022-09-13T18:24:34;18.00;99.90
8643;DHT22;4359;49.358;11.256;2022-09-13T18:27:00;17.90;99.90
8643;DHT22;4359;49.358;11.256;2022-09-13T18:29:27;17.90;99.90
8643;DHT22;4359;49.358;11.256;2022-09-13T18:31:57;17.90;99.90
8643;DHT22;4359;49.358;11.256;2022-09-13T18:34:22;17.90;99.90
8643;DHT22;4359;49.358;11.256;2022-09-13T18:36:55;17.80;99.90
8643;DHT22;4359;49.358;11.256;2022-09-13T18:39:22;17.80;99.90
8643;DHT22;4359;49.358;11.256;2022-09-13T18:41:48;17.80;99.90
8643;DHT22;4359;49.358;11.256;2022-09-13T18:44:15;17.80;99.90
8643;DHT22;4359;49.358;11.256;2022-09-13T18:46:41;17.70;99.90
8643;DHT22;4359;49.358;11.256;2022-09-13T18:49:08;17.70;99.90
8643;DHT22;4359;49.358;11.256;2022-09-13T18:51:41;17.70;99.90
8643;DHT22;4359;49.358;11.256;2022-09-13T18:54:11;17.60;99.90
8643;DHT22;4359;49.358;11.256;2022-09-13T18:56:37;17.60;99.90
8643;DHT22;4359;49.358;11.256;2022-09-13T18:59:04;17.60;99.90
8643;DHT22;4359;49.358;11.256;2022-09-13T19:01:32;17.60;99.90
8643;DHT22;4359;49.358;11.256;2022-09-13T19:04:20;17.50;99.90
8643;DHT22;4359;49.358;11.256;2022-09-13T19:06:50;17.50;99.90
8643;DHT22;4359;49.358;11.256;2022-09-13T19:09:17;17.50;99.90